sensor_id;sensor_type;location;lat;lon;timestamp;pressure;altitude;pressure_sealevel;temperature;humidity
36454;BME280;22478;51.740;-1.314;2022-10-24T00:02:23;98050.08;;;8.21;100.00
36454;BME280;22478;51.740;-1.314;2022-10-24T00:04:51;98051.24;;;7.83;100.00
36454;BME280;22478;51.740;-1.314;2022-10-24T00:07:18;98051.08;;;9.58;100.00
36454;BME280;22478;51.740;-1.314;2022-10-24T00:09:45;98057.36;;;9.70;100.00
36454;BME280;22478;51.740;-1.314;2022-10-24T00:12:12;98060.44;;;8.71;100.00
36454;BME280;22478;51.740;-1.314;2022-10-24T00:14:39;98069.57;;;7.78;100.00
36454;BME280;22478;51.740;-1.314;2022-10-24T00:17:06;98064.29;;;9.33;100.00
36454;BME280;22478;51.740;-1.314;2022-10-24T00:19:33;98078.12;;;8.50;100.00
36454;BME280;22478;51.740;-1.314;2022-10-24T00:22:00;98072.91;;;11.09;100.00
36454;BME280;22478;51.740;-1.314;2022-10-24T00:24:28;98074.82;;;11.59;100.00
36454;BME280;22478;51.740;-1.314;2022-10-24T00:26:55;98079.36;;;11.14;100.00
36454;BME280;22478;51.740;-1.314;2022-10-24T00:29:22;98076.59;;;10.20;100.00
36454;BME280;22478;51.740;-1.314;2022-10-24T00:31:49;98081.85;;;9.51;100.00
36454;BME280;22478;51.740;-1.314;2022-10-24T00:34:17;98087.59;;;9.60;100.00
36454;BME280;22478;51.740;-1.314;2022-10-24T00:36:44;98094.91;;;8.88;100.00
36454;BME280;22478;51.740;-1.314;2022-10-24T00:39:12;98099.25;;;7.75;100.00
36454;BME280;22478;51.740;-1.314;2022-10-24T00:41:41;98099.75;;;9.88;100.00
36454;BME280;22478;51.740;-1.314;2022-10-24T00:44:14;98106.78;;;8.17;100.00
36454;BME280;22478;51.740;-1.314;2022-10-24T00:46:46;98111.04;;;8.23;100.00
36454;BME280;22478;51.740;-1.314;2022-10-24T00:49:17;98122.57;;;6.90;100.00
36454;BME280;22478;51.740;-1.314;2022-10-24T00:51:48;98124.87;;;6.64;100.00
36454;BME280;22478;51.740;-1.314;2022-10-24T00:54:16;98128.65;;;6.86;100.00
36454;BME280;22478;51.740;-1.314;2022-10-24T00:56:50;98135.81;;;5.16;100.00
36454;BME280;22478;51.740;-1.314;2022-10-24T00:59:19;98142.38;;;7.16;100.00
36454;BME280;22478;51.740;-1.314;2022-10-24T01:01:48;98160.95;;;5.15;100.00
36454;BME280;22478;51.740;-1.314;2022-10-24T01:04:15;98164.83;;;5.50;100.00
36454;BME280;22478;51.740;-1.314;2022-10-24T01:06:46;98174.25;;;5.69;100.00
36454;BME280;22478;51.740;-1.314;2022-10-24T01:09:40;98187.43;;;4.41;100.00
36454;BME280;22478;51.740;-1.314;2022-10-24T01:12:19;98200.98;;;3.21;100.00
36454;BME280;22478;51.740;-1.314;2022-10-24T01:15:01;98209.21;;;4.50;100.00
36454;BME280;22478;51.740;-1.314;2022-10-24T01:17:38;98219.43;;;4.02;100.00
36454;BME280;22478;51.740;-1.314;2022-10-24T01:20:21;98231.58;;;4.30;100.00
36454;BME280;22478;51.740;-1.314;2022-10-24T01:23:04;98237.55;;;5.67;100.00
36454;BME280;22478;51.740;-1.314;2022-10-24T01:25:42;98246.43;;;4.81;100.00
36454;BME280;22478;51.740;-1.314;2022-10-24T01:28:15;98254.35;;;5.13;100.00
36454;BME280;22478;51.740;-1.314;2022-10-24T01:30:46;98265.42;;;4.76;100.00
36454;BME280;22478;51.740;-1.314;2022-10-24T01:33:22;98278.48;;;5.20;100.00
36454;BME280;22478;51.740;-1.314;2022-10-24T01:35:55;98285.10;;;4.88;100.00
36454;BME280;22478;51.740;-1.314;2022-10-24T01:38:29;98288.20;;;5.07;100.00
36454;BME280;22478;51.740;-1.314;2022-10-24T01:41:00;98297.67;;;4.40;100.00
36454;BME280;22478;51.740;-1.314;2022-10-24T01:43:32;98300.67;;;4.57;100.00
36454;BME280;22478;51.740;-1.314;2022-10-24T01:46:03;98303.72;;;4.69;100.00
36454;BME280;22478;51.740;-1.314;2022-10-24T01:48:33;98310.43;;;4.88;100.00
36454;BME280;22478;51.740;-1.314;2022-10-24T01:51:02;98307.51;;;4.93;100.00
36454;BME280;22478;51.740;-1.314;2022-10-24T01:53:31;98309.35;;;5.47;100.00
36454;BME280;22478;51.740;-1.314;2022-10-24T01:55:59;98299.99;;;7.25;100.00
36454;BME280;22478;51.740;-1.314;2022-10-24T01:58:27;98316.16;;;5.79;100.00
36454;BME280;22478;51.740;-1.314;2022-10-24T02:00:58;98322.83;;;5.09;100.00
36454;BME280;22478;51.740;-1.314;2022-10-24T02:03:31;98326.47;;;5.36;100.00
36454;BME280;22478;51.740;-1.314;2022-10-24T02:06:03;98325.20;;;6.59;100.00
36454;BME280;22478;51.740;-1.314;2022-10-24T02:08:39;98332.28;;;5.99;100.00
36454;BME280;22478;51.740;-1.314;2022-10-24T02:11:09;98334.87;;;5.54;100.00
36454;BME280;22478;51.740;-1.314;2022-10-24T02:13:40;98341.93;;;7.15;100.00
36454;BME280;22478;51.740;-1.314;2022-10-24T02:16:09;98338.39;;;6.84;100.00
36454;BME280;22478;51.740;-1.314;2022-10-24T02:18:39;98354.60;;;5.09;100.00
36454;BME280;22478;51.740;-1.314;2022-10-24T02:21:15;98369.62;;;4.24;100.00
36454;BME280;22478;51.740;-1.314;2022-10-24T02:23:49;98369.53;;;5.77;100.00
36454;BME280;22478;51.740;-1.314;2022-10-24T02:26:23;98374.39;;;6.26;100.00
36454;BME280;22478;51.740;-1.314;2022-10-24T02:28:53;98383.81;;;5.63;100.00
36454;BME280;22478;51.740;-1.314;2022-10-24T02:31:25;98387.30;;;7.06;100.00
36454;BME280;22478;51.740;-1.314;2022-10-24T02:33:53;98385.28;;;7.26;100.00
36454;BME280;22478;51.740;-1.314;2022-10-24T02:36:25;98385.55;;;6.44;100.00
36454;BME280;22478;51.740;-1.314;2022-10-24T02:38:54;98394.79;;;6.87;100.00
36454;BME280;22478;51.740;-1.314;2022-10-24T02:41:25;98405.10;;;6.71;100.00
36454;BME280;22478;51.740;-1.314;2022-10-24T02:43:54;98402.27;;;6.35;100.00
36454;BME280;22478;51.740;-1.314;2022-10-24T02:46:24;98407.72;;;6.51;100.00
36454;BME280;22478;51.740;-1.314;2022-10-24T02:48:56;98417.78;;;5.64;100.00
36454;BME280;22478;51.740;-1.314;2022-10-24T02:51:27;98416.19;;;6.00;100.00
36454;BME280;22478;51.740;-1.314;2022-10-24T02:53:56;98422.43;;;5.52;100.00
36454;BME280;22478;51.740;-1.314;2022-10-24T02:56:23;98428.75;;;5.66;100.00
36454;BME280;22478;51.740;-1.314;2022-10-24T02:58:51;98428.45;;;6.58;100.00
36454;BME280;22478;51.740;-1.314;2022-10-24T03:01:18;98430.26;;;5.90;100.00
36454;BME280;22478;51.740;-1.314;2022-10-24T03:03:46;98447.58;;;4.16;100.00
36454;BME280;22478;51.740;-1.314;2022-10-24T03:06:13;98447.01;;;5.21;100.00
36454;BME280;22478;51.740;-1.314;2022-10-24T03:08:41;98436.48;;;6.97;100.00
36454;BME280;22478;51.740;-1.314;2022-10-24T03:11:08;98441.01;;;5.73;100.00
36454;BME280;22478;51.740;-1.314;2022-10-24T03:13:35;98448.45;;;6.16;100.00
36454;BME280;22478;51.740;-1.314;2022-10-24T03:16:02;98448.03;;;6.11;100.00
36454;BME280;22478;51.740;-1.314;2022-10-24T03:18:29;98453.49;;;5.84;100.00
36454;BME280;22478;51.740;-1.314;2022-10-24T03:20:57;98456.67;;;5.06;100.00
36454;BME280;22478;51.740;-1.314;2022-10-24T03:23:24;98466.37;;;5.65;100.00
36454;BME280;22478;51.740;-1.314;2022-10-24T03:25:51;98450.92;;;8.37;100.00
36454;BME280;22478;51.740;-1.314;2022-10-24T03:28:18;98455.02;;;6.00;100.00
36454;BME280;22478;51.740;-1.314;2022-10-24T03:30:45;98463.31;;;7.94;100.00
36454;BME280;22478;51.740;-1.314;2022-10-24T03:33:12;98473.76;;;6.58;100.00
36454;BME280;22478;51.740;-1.314;2022-10-24T03:35:39;98478.32;;;5.38;100.00
36454;BME280;22478;51.740;-1.314;2022-10-24T03:38:07;98477.47;;;6.89;100.00
36454;BME280;22478;51.740;-1.314;2022-10-24T03:40:34;98479.85;;;6.60;100.00
36454;BME280;22478;51.740;-1.314;2022-10-24T03:43:01;98482.67;;;6.10;100.00
36454;BME280;22478;51.740;-1.314;2022-10-24T03:45:28;98482.58;;;6.85;100.00
36454;BME280;22478;51.740;-1.314;2022-10-24T03:47:55;98487.69;;;6.61;100.00
36454;BME280;22478;51.740;-1.314;2022-10-24T03:50:23;98490.15;;;6.88;100.00
36454;BME280;22478;51.740;-1.314;2022-10-24T03:52:50;98494.78;;;8.17;100.00
36454;BME280;22478;51.740;-1.314;2022-10-24T03:55:18;98501.79;;;6.49;100.00
36454;BME280;22478;51.740;-1.314;2022-10-24T03:57:44;98508.19;;;7.03;100.00
36454;BME280;22478;51.740;-1.314;2022-10-24T04:00:13;98517.13;;;7.79;100.00
36454;BME280;22478;51.740;-1.314;2022-10-24T04:02:40;98516.54;;;6.81;100.00
36454;BME280;22478;51.740;-1.314;2022-10-24T04:05:08;98525.15;;;7.60;100.00
36454;BME280;22478;51.740;-1.314;2022-10-24T04:07:35;98534.31;;;5.80;100.00
36454;BME280;22478;51.740;-1.314;2022-10-24T04:10:03;98548.57;;;4.47;100.00
36454;BME280;22478;51.740;-1.314;2022-10-24T04:12:30;98548.65;;;4.86;100.00
36454;BME280;22478;51.740;-1.314;2022-10-24T04:14:58;98549.80;;;6.55;100.00
36454;BME280;22478;51.740;-1.314;2022-10-24T04:17:25;98547.91;;;6.80;100.00
36454;BME280;22478;51.740;-1.314;2022-10-24T04:19:52;98547.14;;;7.01;100.00
36454;BME280;22478;51.740;-1.314;2022-10-24T04:22:19;98546.82;;;7.33;100.00
36454;BME280;22478;51.740;-1.314;2022-10-24T04:24:47;98562.76;;;5.66;100.00
36454;BME280;22478;51.740;-1.314;2022-10-24T04:27:14;98567.72;;;6.76;100.00
36454;BME280;22478;51.740;-1.314;2022-10-24T04:29:41;98563.40;;;6.80;100.00
36454;BME280;22478;51.740;-1.314;2022-10-24T04:32:08;98560.93;;;6.47;100.00
36454;BME280;22478;51.740;-1.314;2022-10-24T04:34:35;98561.21;;;6.78;100.00
36454;BME280;22478;51.740;-1.314;2022-10-24T04:37:02;98568.15;;;6.23;100.00
36454;BME280;22478;51.740;-1.314;2022-10-24T04:39:29;98575.60;;;6.39;100.00
36454;BME280;22478;51.740;-1.314;2022-10-24T04:41:57;98571.41;;;7.71;100.00
36454;BME280;22478;51.740;-1.314;2022-10-24T04:44:24;98574.52;;;7.16;100.00
36454;BME280;22478;51.740;-1.314;2022-10-24T04:46:52;98584.50;;;7.17;100.00
36454;BME280;22478;51.740;-1.314;2022-10-24T04:49:19;98591.59;;;7.26;100.00
36454;BME280;22478;51.740;-1.314;2022-10-24T04:51:46;98593.09;;;7.19;100.00
36454;BME280;22478;51.740;-1.314;2022-10-24T04:54:13;98610.64;;;5.94;100.00
36454;BME280;22478;51.740;-1.314;2022-10-24T04:56:41;98603.27;;;7.86;100.00
36454;BME280;22478;51.740;-1.314;2022-10-24T04:59:07;98603.74;;;8.04;100.00
36454;BME280;22478;51.740;-1.314;2022-10-24T05:01:34;98612.28;;;8.09;100.00
36454;BME280;22478;51.740;-1.314;2022-10-24T05:04:02;98614.92;;;7.90;100.00
36454;BME280;22478;51.740;-1.314;2022-10-24T05:06:29;98632.70;;;6.13;100.00
36454;BME280;22478;51.740;-1.314;2022-10-24T05:08:56;98635.40;;;6.88;100.00
36454;BME280;22478;51.740;-1.314;2022-10-24T05:11:25;98637.54;;;8.27;100.00
36454;BME280;22478;51.740;-1.314;2022-10-24T05:13:52;98644.69;;;6.95;100.00
36454;BME280;22478;51.740;-1.314;2022-10-24T05:16:19;98660.95;;;5.85;100.00
36454;BME280;22478;51.740;-1.314;2022-10-24T05:18:46;98659.85;;;6.61;100.00
36454;BME280;22478;51.740;-1.314;2022-10-24T05:21:14;98669.60;;;5.43;100.00
36454;BME280;22478;51.740;-1.314;2022-10-24T05:23:41;98677.39;;;6.50;100.00
36454;BME280;22478;51.740;-1.314;2022-10-24T05:26:08;98672.79;;;6.52;100.00
36454;BME280;22478;51.740;-1.314;2022-10-24T05:28:35;98685.68;;;6.54;100.00
36454;BME280;22478;51.740;-1.314;2022-10-24T05:31:02;98688.32;;;6.48;100.00
36454;BME280;22478;51.740;-1.314;2022-10-24T05:33:29;98693.45;;;6.06;100.00
36454;BME280;22478;51.740;-1.314;2022-10-24T05:35:57;98701.37;;;5.20;100.00
36454;BME280;22478;51.740;-1.314;2022-10-24T05:38:25;98702.53;;;5.57;100.00
36454;BME280;22478;51.740;-1.314;2022-10-24T05:40:52;98704.62;;;5.47;100.00
36454;BME280;22478;51.740;-1.314;2022-10-24T05:43:19;98703.14;;;7.08;100.00
36454;BME280;22478;51.740;-1.314;2022-10-24T05:45:47;98702.21;;;7.79;100.00
36454;BME280;22478;51.740;-1.314;2022-10-24T05:48:15;98701.79;;;8.72;100.00
36454;BME280;22478;51.740;-1.314;2022-10-24T05:50:43;98713.64;;;7.45;100.00
36454;BME280;22478;51.740;-1.314;2022-10-24T05:53:10;98709.99;;;8.40;100.00
36454;BME280;22478;51.740;-1.314;2022-10-24T05:55:38;98724.30;;;5.99;100.00
36454;BME280;22478;51.740;-1.314;2022-10-24T05:58:05;98735.05;;;5.58;100.00
36454;BME280;22478;51.740;-1.314;2022-10-24T06:00:32;98733.94;;;7.45;100.00
36454;BME280;22478;51.740;-1.314;2022-10-24T06:03:00;98723.38;;;8.38;100.00
36454;BME280;22478;51.740;-1.314;2022-10-24T06:05:27;98725.22;;;9.75;100.00
36454;BME280;22478;51.740;-1.314;2022-10-24T06:07:54;98728.96;;;6.92;100.00
36454;BME280;22478;51.740;-1.314;2022-10-24T06:10:22;98730.16;;;9.02;100.00
36454;BME280;22478;51.740;-1.314;2022-10-24T06:12:49;98732.74;;;9.77;100.00
36454;BME280;22478;51.740;-1.314;2022-10-24T06:15:16;98735.11;;;8.44;100.00
36454;BME280;22478;51.740;-1.314;2022-10-24T06:17:43;98747.19;;;7.00;100.00
36454;BME280;22478;51.740;-1.314;2022-10-24T06:20:10;98741.72;;;8.65;100.00
36454;BME280;22478;51.740;-1.314;2022-10-24T06:22:38;98735.73;;;10.20;100.00
36454;BME280;22478;51.740;-1.314;2022-10-24T06:25:05;98748.05;;;8.40;100.00
36454;BME280;22478;51.740;-1.314;2022-10-24T06:27:33;98751.08;;;8.70;100.00
36454;BME280;22478;51.740;-1.314;2022-10-24T06:30:00;98767.67;;;6.22;100.00
36454;BME280;22478;51.740;-1.314;2022-10-24T06:32:27;98760.11;;;8.58;100.00
36454;BME280;22478;51.740;-1.314;2022-10-24T06:34:54;98762.56;;;8.56;100.00
36454;BME280;22478;51.740;-1.314;2022-10-24T06:37:21;98763.11;;;9.39;100.00
36454;BME280;22478;51.740;-1.314;2022-10-24T06:39:48;98770.17;;;7.96;100.00
36454;BME280;22478;51.740;-1.314;2022-10-24T06:42:15;98784.55;;;7.05;100.00
36454;BME280;22478;51.740;-1.314;2022-10-24T06:44:42;98782.26;;;7.84;100.00
36454;BME280;22478;51.740;-1.314;2022-10-24T06:47:10;98788.08;;;8.14;100.00
36454;BME280;22478;51.740;-1.314;2022-10-24T06:49:38;98792.99;;;7.81;100.00
36454;BME280;22478;51.740;-1.314;2022-10-24T06:52:04;98790.69;;;8.52;100.00
36454;BME280;22478;51.740;-1.314;2022-10-24T06:54:32;98802.94;;;6.63;100.00
36454;BME280;22478;51.740;-1.314;2022-10-24T06:57:00;98800.44;;;8.15;100.00
36454;BME280;22478;51.740;-1.314;2022-10-24T06:59:27;98809.00;;;7.67;100.00
36454;BME280;22478;51.740;-1.314;2022-10-24T07:01:54;98807.68;;;8.47;100.00
36454;BME280;22478;51.740;-1.314;2022-10-24T07:04:21;98807.11;;;8.89;100.00
36454;BME280;22478;51.740;-1.314;2022-10-24T07:06:48;98815.00;;;9.36;100.00
36454;BME280;22478;51.740;-1.314;2022-10-24T07:09:16;98810.02;;;10.54;100.00
36454;BME280;22478;51.740;-1.314;2022-10-24T07:11:45;98813.34;;;9.98;100.00
36454;BME280;22478;51.740;-1.314;2022-10-24T07:14:12;98819.88;;;8.23;100.00
36454;BME280;22478;51.740;-1.314;2022-10-24T07:16:40;98832.98;;;7.66;100.00
36454;BME280;22478;51.740;-1.314;2022-10-24T07:19:07;98824.89;;;8.67;100.00
36454;BME280;22478;51.740;-1.314;2022-10-24T07:21:35;98833.03;;;8.03;100.00
36454;BME280;22478;51.740;-1.314;2022-10-24T07:24:04;98841.72;;;7.36;100.00
36454;BME280;22478;51.740;-1.314;2022-10-24T07:26:31;98834.68;;;8.62;100.00
36454;BME280;22478;51.740;-1.314;2022-10-24T07:29:00;98849.46;;;8.21;100.00
36454;BME280;22478;51.740;-1.314;2022-10-24T07:31:29;98864.87;;;5.91;100.00
36454;BME280;22478;51.740;-1.314;2022-10-24T07:33:57;98857.03;;;8.98;100.00
36454;BME280;22478;51.740;-1.314;2022-10-24T07:36:25;98859.79;;;9.09;100.00
36454;BME280;22478;51.740;-1.314;2022-10-24T07:38:54;98864.00;;;9.58;100.00
36454;BME280;22478;51.740;-1.314;2022-10-24T07:41:24;98875.51;;;8.35;100.00
36454;BME280;22478;51.740;-1.314;2022-10-24T07:43:52;98873.33;;;10.27;100.00
36454;BME280;22478;51.740;-1.314;2022-10-24T07:46:21;98888.58;;;7.89;100.00
36454;BME280;22478;51.740;-1.314;2022-10-24T07:48:49;98890.11;;;7.61;100.00
36454;BME280;22478;51.740;-1.314;2022-10-24T07:51:17;98888.32;;;8.58;100.00
36454;BME280;22478;51.740;-1.314;2022-10-24T07:53:45;98889.04;;;9.08;100.00
36454;BME280;22478;51.740;-1.314;2022-10-24T07:56:15;98890.63;;;9.37;100.00
36454;BME280;22478;51.740;-1.314;2022-10-24T07:58:43;98898.56;;;9.71;100.00
36454;BME280;22478;51.740;-1.314;2022-10-24T08:01:12;98903.47;;;10.13;100.00
36454;BME280;22478;51.740;-1.314;2022-10-24T08:03:40;98909.45;;;10.12;100.00
36454;BME280;22478;51.740;-1.314;2022-10-24T08:06:10;98922.23;;;7.87;100.00
36454;BME280;22478;51.740;-1.314;2022-10-24T08:08:38;98920.62;;;8.74;100.00
36454;BME280;22478;51.740;-1.314;2022-10-24T08:11:07;98915.66;;;9.52;100.00
36454;BME280;22478;51.740;-1.314;2022-10-24T08:13:34;98919.76;;;9.22;100.00
36454;BME280;22478;51.740;-1.314;2022-10-24T08:16:04;98925.17;;;7.14;100.00
36454;BME280;22478;51.740;-1.314;2022-10-24T08:18:32;98915.44;;;9.59;100.00
36454;BME280;22478;51.740;-1.314;2022-10-24T08:21:01;98914.55;;;9.72;100.00
36454;BME280;22478;51.740;-1.314;2022-10-24T08:23:29;98922.44;;;9.06;100.00
36454;BME280;22478;51.740;-1.314;2022-10-24T08:25:56;98919.16;;;10.55;100.00
36454;BME280;22478;51.740;-1.314;2022-10-24T08:28:23;98925.54;;;10.60;100.00
36454;BME280;22478;51.740;-1.314;2022-10-24T08:30:56;98929.24;;;10.55;100.00
36454;BME280;22478;51.740;-1.314;2022-10-24T08:33:23;98930.82;;;10.38;100.00
36454;BME280;22478;51.740;-1.314;2022-10-24T08:35:52;98939.39;;;8.19;100.00
36454;BME280;22478;51.740;-1.314;2022-10-24T08:38:20;98936.33;;;10.74;100.00
36454;BME280;22478;51.740;-1.314;2022-10-24T08:40:47;98936.98;;;10.72;100.00
36454;BME280;22478;51.740;-1.314;2022-10-24T08:43:15;98935.74;;;11.26;100.00
36454;BME280;22478;51.740;-1.314;2022-10-24T08:45:50;98938.53;;;11.21;100.00
36454;BME280;22478;51.740;-1.314;2022-10-24T08:48:23;98947.71;;;10.74;100.00
36454;BME280;22478;51.740;-1.314;2022-10-24T08:50:58;98956.60;;;8.66;100.00
36454;BME280;22478;51.740;-1.314;2022-10-24T08:53:28;98959.26;;;10.20;100.00
36454;BME280;22478;51.740;-1.314;2022-10-24T08:55:58;98956.71;;;10.44;100.00
36454;BME280;22478;51.740;-1.314;2022-10-24T08:58:27;98957.02;;;10.78;100.00
36454;BME280;22478;51.740;-1.314;2022-10-24T09:00:58;98968.30;;;8.65;100.00
36454;BME280;22478;51.740;-1.314;2022-10-24T09:03:30;98963.96;;;9.48;100.00
36454;BME280;22478;51.740;-1.314;2022-10-24T09:06:01;98967.20;;;9.58;100.00
36454;BME280;22478;51.740;-1.314;2022-10-24T09:08:33;98964.65;;;9.94;100.00
36454;BME280;22478;51.740;-1.314;2022-10-24T09:11:06;98969.02;;;9.57;100.00
36454;BME280;22478;51.740;-1.314;2022-10-24T09:13:36;98980.18;;;8.54;100.00
36454;BME280;22478;51.740;-1.314;2022-10-24T09:16:04;98981.53;;;8.29;100.00
36454;BME280;22478;51.740;-1.314;2022-10-24T09:18:33;98977.31;;;9.62;100.00
36454;BME280;22478;51.740;-1.314;2022-10-24T09:21:05;98973.90;;;10.17;100.00
36454;BME280;22478;51.740;-1.314;2022-10-24T09:23:34;98980.07;;;10.87;100.00
36454;BME280;22478;51.740;-1.314;2022-10-24T09:26:04;98981.09;;;9.81;100.00
36454;BME280;22478;51.740;-1.314;2022-10-24T09:28:37;98991.12;;;7.65;100.00
36454;BME280;22478;51.740;-1.314;2022-10-24T09:31:14;98991.50;;;9.05;100.00
36454;BME280;22478;51.740;-1.314;2022-10-24T09:33:44;98987.52;;;8.95;100.00
36454;BME280;22478;51.740;-1.314;2022-10-24T09:36:13;98984.76;;;10.11;100.00
36454;BME280;22478;51.740;-1.314;2022-10-24T09:38:42;98983.96;;;11.81;100.00
36454;BME280;22478;51.740;-1.314;2022-10-24T09:41:16;98981.99;;;12.82;100.00
36454;BME280;22478;51.740;-1.314;2022-10-24T09:43:47;98984.68;;;12.79;100.00
36454;BME280;22478;51.740;-1.314;2022-10-24T09:46:18;98991.89;;;10.84;100.00
36454;BME280;22478;51.740;-1.314;2022-10-24T09:48:51;98992.28;;;14.22;100.00
36454;BME280;22478;51.740;-1.314;2022-10-24T09:51:24;99000.64;;;13.10;100.00
36454;BME280;22478;51.740;-1.314;2022-10-24T09:54:24;98991.19;;;13.81;100.00
36454;BME280;22478;51.740;-1.314;2022-10-24T09:56:55;98988.44;;;15.39;90.02
36454;BME280;22478;51.740;-1.314;2022-10-24T09:59:34;98991.20;;;15.59;83.01
36454;BME280;22478;51.740;-1.314;2022-10-24T10:02:20;98997.20;;;15.14;95.67
36454;BME280;22478;51.740;-1.314;2022-10-24T10:07:34;98989.17;;;19.12;78.23
36454;BME280;22478;51.740;-1.314;2022-10-24T10:10:06;99000.33;;;18.08;74.52
36454;BME280;22478;51.740;-1.314;2022-10-24T10:12:36;99006.06;;;16.10;86.74
36454;BME280;22478;51.740;-1.314;2022-10-24T10:15:18;99011.51;;;13.55;90.51
36454;BME280;22478;51.740;-1.314;2022-10-24T10:17:49;99007.27;;;16.34;81.68
36454;BME280;22478;51.740;-1.314;2022-10-24T10:20:22;99009.34;;;16.17;85.50
36454;BME280;22478;51.740;-1.314;2022-10-24T10:22:50;99026.35;;;12.44;100.00
36454;BME280;22478;51.740;-1.314;2022-10-24T10:25:29;99027.95;;;12.22;100.00
36454;BME280;22478;51.740;-1.314;2022-10-24T10:27:57;99014.83;;;13.02;92.98
36454;BME280;22478;51.740;-1.314;2022-10-24T10:30:24;99027.17;;;13.40;100.00
36454;BME280;22478;51.740;-1.314;2022-10-24T10:33:02;99034.06;;;11.40;100.00
36454;BME280;22478;51.740;-1.314;2022-10-24T10:35:36;99030.66;;;14.37;96.52
36454;BME280;22478;51.740;-1.314;2022-10-24T10:38:21;99033.10;;;13.23;100.00
36454;BME280;22478;51.740;-1.314;2022-10-24T10:41:01;99046.99;;;10.86;100.00
36454;BME280;22478;51.740;-1.314;2022-10-24T10:43:36;99049.40;;;10.61;100.00
36454;BME280;22478;51.740;-1.314;2022-10-24T10:46:13;99034.54;;;14.37;100.00
36454;BME280;22478;51.740;-1.314;2022-10-24T10:48:51;99038.89;;;15.38;98.17
36454;BME280;22478;51.740;-1.314;2022-10-24T10:51:31;99041.74;;;14.78;100.00
36454;BME280;22478;51.740;-1.314;2022-10-24T10:54:07;99049.30;;;11.94;100.00
36454;BME280;22478;51.740;-1.314;2022-10-24T10:56:44;99052.33;;;11.54;100.00
36454;BME280;22478;51.740;-1.314;2022-10-24T10:59:24;99053.06;;;11.66;100.00
36454;BME280;22478;51.740;-1.314;2022-10-24T11:01:58;99054.76;;;12.84;100.00
36454;BME280;22478;51.740;-1.314;2022-10-24T11:04:35;99060.41;;;11.13;100.00
36454;BME280;22478;51.740;-1.314;2022-10-24T11:07:09;99063.37;;;11.90;100.00
36454;BME280;22478;51.740;-1.314;2022-10-24T11:09:42;99067.27;;;13.36;100.00
36454;BME280;22478;51.740;-1.314;2022-10-24T11:12:16;99066.72;;;12.24;100.00
36454;BME280;22478;51.740;-1.314;2022-10-24T11:14:48;99074.76;;;13.53;100.00
36454;BME280;22478;51.740;-1.314;2022-10-24T11:17:19;99068.56;;;12.67;100.00
36454;BME280;22478;51.740;-1.314;2022-10-24T11:20:12;99070.11;;;13.40;100.00
36454;BME280;22478;51.740;-1.314;2022-10-24T11:22:54;99070.94;;;13.12;100.00
36454;BME280;22478;51.740;-1.314;2022-10-24T11:25:25;99060.90;;;16.37;93.92
36454;BME280;22478;51.740;-1.314;2022-10-24T11:28:02;99063.35;;;14.68;100.00
36454;BME280;22478;51.740;-1.314;2022-10-24T11:30:42;99060.35;;;16.68;87.10
36454;BME280;22478;51.740;-1.314;2022-10-24T11:33:17;99070.42;;;12.76;100.00
36454;BME280;22478;51.740;-1.314;2022-10-24T11:36:03;99061.58;;;15.21;96.34
36454;BME280;22478;51.740;-1.314;2022-10-24T11:38:35;99068.85;;;14.24;99.69
36454;BME280;22478;51.740;-1.314;2022-10-24T11:41:21;99085.27;;;13.05;100.00
36454;BME280;22478;51.740;-1.314;2022-10-24T11:43:51;99083.78;;;12.62;100.00
36454;BME280;22478;51.740;-1.314;2022-10-24T11:46:23;99089.74;;;11.02;100.00
36454;BME280;22478;51.740;-1.314;2022-10-24T11:48:56;99086.53;;;12.87;100.00
36454;BME280;22478;51.740;-1.314;2022-10-24T11:51:30;99089.14;;;12.47;100.00
36454;BME280;22478;51.740;-1.314;2022-10-24T11:54:00;99089.30;;;12.21;100.00
36454;BME280;22478;51.740;-1.314;2022-10-24T11:56:35;99096.55;;;11.17;100.00
36454;BME280;22478;51.740;-1.314;2022-10-24T11:59:05;99094.99;;;13.22;100.00
36454;BME280;22478;51.740;-1.314;2022-10-24T12:01:50;99089.84;;;12.73;100.00
36454;BME280;22478;51.740;-1.314;2022-10-24T12:04:40;99096.27;;;13.98;100.00
36454;BME280;22478;51.740;-1.314;2022-10-24T12:07:43;99099.13;;;11.47;100.00
36454;BME280;22478;51.740;-1.314;2022-10-24T12:10:24;99089.44;;;12.50;100.00
36454;BME280;22478;51.740;-1.314;2022-10-24T12:13:08;99091.34;;;12.46;100.00
36454;BME280;22478;51.740;-1.314;2022-10-24T12:15:44;99089.99;;;11.37;100.00
36454;BME280;22478;51.740;-1.314;2022-10-24T12:18:25;99099.74;;;10.77;100.00
36454;BME280;22478;51.740;-1.314;2022-10-24T12:20:55;99091.48;;;10.90;100.00
36454;BME280;22478;51.740;-1.314;2022-10-24T12:23:26;99092.88;;;10.97;100.00
36454;BME280;22478;51.740;-1.314;2022-10-24T12:26:03;99086.22;;;12.04;100.00
36454;BME280;22478;51.740;-1.314;2022-10-24T12:28:31;99092.40;;;12.46;100.00
36454;BME280;22478;51.740;-1.314;2022-10-24T12:31:09;99091.60;;;11.00;100.00
36454;BME280;22478;51.740;-1.314;2022-10-24T12:33:37;99091.91;;;12.82;100.00
36454;BME280;22478;51.740;-1.314;2022-10-24T12:36:04;99092.32;;;11.26;100.00
36454;BME280;22478;51.740;-1.314;2022-10-24T12:39:04;99094.42;;;11.36;100.00
36454;BME280;22478;51.740;-1.314;2022-10-24T12:41:37;99088.56;;;13.16;100.00
36454;BME280;22478;51.740;-1.314;2022-10-24T12:44:40;99087.00;;;11.69;100.00
36454;BME280;22478;51.740;-1.314;2022-10-24T12:47:30;99098.69;;;10.60;100.00
36454;BME280;22478;51.740;-1.314;2022-10-24T12:50:16;99088.82;;;11.02;100.00
36454;BME280;22478;51.740;-1.314;2022-10-24T12:53:29;99082.03;;;10.68;100.00
36454;BME280;22478;51.740;-1.314;2022-10-24T12:56:10;99080.60;;;11.69;100.00
36454;BME280;22478;51.740;-1.314;2022-10-24T12:58:38;99084.08;;;11.03;100.00
36454;BME280;22478;51.740;-1.314;2022-10-24T13:01:10;99082.42;;;13.85;100.00
36454;BME280;22478;51.740;-1.314;2022-10-24T13:03:51;99089.12;;;11.69;100.00
36454;BME280;22478;51.740;-1.314;2022-10-24T13:06:25;99073.70;;;12.54;100.00
36454;BME280;22478;51.740;-1.314;2022-10-24T13:09:05;99080.06;;;11.01;100.00
36454;BME280;22478;51.740;-1.314;2022-10-24T13:11:46;99083.35;;;11.99;100.00